sensor_id;sensor_type;location;lat;lon;timestamp;temperature;humidity
17092;DHT22;8661;45.700;4.880;2023-04-05T00:01:45;5.90;90.30
17092;DHT22;8661;45.700;4.880;2023-04-05T00:04:17;5.90;90.40
17092;DHT22;8661;45.700;4.880;2023-04-05T00:06:46;5.90;90.60
17092;DHT22;8661;45.700;4.880;2023-04-05T00:09:16;5.80;90.60
17092;DHT22;8661;45.700;4.880;2023-04-05T00:11:44;5.90;90.60
17092;DHT22;8661;45.700;4.880;2023-04-05T00:14:12;5.80;90.70
17092;DHT22;8661;45.700;4.880;2023-04-05T00:16:39;5.80;90.70
17092;DHT22;8661;45.700;4.880;2023-04-05T00:19:06;5.70;90.90
17092;DHT22;8661;45.700;4.880;2023-04-05T00:21:35;5.70;90.90
17092;DHT22;8661;45.700;4.880;2023-04-05T00:24:04;5.70;91.00
17092;DHT22;8661;45.700;4.880;2023-04-05T00:26:32;5.60;91.00
17092;DHT22;8661;45.700;4.880;2023-04-05T00:28:59;5.60;91.20
17092;DHT22;8661;45.700;4.880;2023-04-05T00:31:28;5.60;91.20
17092;DHT22;8661;45.700;4.880;2023-04-05T00:33:54;5.60;91.30
17092;DHT22;8661;45.700;4.880;2023-04-05T00:36:22;5.50;91.50
17092;DHT22;8661;45.700;4.880;2023-04-05T00:38:49;5.50;91.40
17092;DHT22;8661;45.700;4.880;2023-04-05T00:41:16;5.50;91.40
17092;DHT22;8661;45.700;4.880;2023-04-05T00:43:43;5.50;91.40
17092;DHT22;8661;45.700;4.880;2023-04-05T00:46:10;5.50;91.50
17092;DHT22;8661;45.700;4.880;2023-04-05T00:48:39;5.40;91.50
17092;DHT22;8661;45.700;4.880;2023-04-05T00:51:09;5.40;91.50
17092;DHT22;8661;45.700;4.880;2023-04-05T00:53:38;5.40;91.80
17092;DHT22;8661;45.700;4.880;2023-04-05T00:56:06;5.40;91.80
17092;DHT22;8661;45.700;4.880;2023-04-05T00:58:34;5.30;91.60
17092;DHT22;8661;45.700;4.880;2023-04-05T01:01:03;5.30;92.20
17092;DHT22;8661;45.700;4.880;2023-04-05T01:03:43;5.20;91.80
17092;DHT22;8661;45.700;4.880;2023-04-05T01:06:25;5.10;92.00
17092;DHT22;8661;45.700;4.880;2023-04-05T01:08:59;5.10;92.10
17092;DHT22;8661;45.700;4.880;2023-04-05T01:11:29;5.00;92.30
17092;DHT22;8661;45.700;4.880;2023-04-05T01:13:58;5.00;92.50
17092;DHT22;8661;45.700;4.880;2023-04-05T01:16:25;4.90;92.70
17092;DHT22;8661;45.700;4.880;2023-04-05T01:18:54;4.90;92.80
17092;DHT22;8661;45.700;4.880;2023-04-05T01:21:41;4.90;92.90
17092;DHT22;8661;45.700;4.880;2023-04-05T01:24:18;4.90;92.90
17092;DHT22;8661;45.700;4.880;2023-04-05T01:27:00;4.90;93.00
17092;DHT22;8661;45.700;4.880;2023-04-05T01:29:46;4.80;93.10
17092;DHT22;8661;45.700;4.880;2023-04-05T01:32:25;4.80;93.20
17092;DHT22;8661;45.700;4.880;2023-04-05T01:35:00;4.70;93.10
17092;DHT22;8661;45.700;4.880;2023-04-05T01:37:32;4.70;93.30
17092;DHT22;8661;45.700;4.880;2023-04-05T01:40:00;4.60;93.30
17092;DHT22;8661;45.700;4.880;2023-04-05T01:42:27;4.60;93.40
17092;DHT22;8661;45.700;4.880;2023-04-05T01:44:56;4.50;93.50
17092;DHT22;8661;45.700;4.880;2023-04-05T01:47:24;4.60;93.50
17092;DHT22;8661;45.700;4.880;2023-04-05T01:49:51;4.50;93.50
17092;DHT22;8661;45.700;4.880;2023-04-05T01:52:18;4.50;93.60
17092;DHT22;8661;45.700;4.880;2023-04-05T01:54:44;4.50;93.60
17092;DHT22;8661;45.700;4.880;2023-04-05T01:57:11;4.50;93.50
17092;DHT22;8661;45.700;4.880;2023-04-05T01:59:38;4.40;93.70
17092;DHT22;8661;45.700;4.880;2023-04-05T02:02:07;4.40;93.90
17092;DHT22;8661;45.700;4.880;2023-04-05T02:04:34;4.30;93.90
17092;DHT22;8661;45.700;4.880;2023-04-05T02:07:01;4.40;94.00
17092;DHT22;8661;45.700;4.880;2023-04-05T02:09:29;4.30;94.00
17092;DHT22;8661;45.700;4.880;2023-04-05T02:11:58;4.30;94.10
17092;DHT22;8661;45.700;4.880;2023-04-05T02:14:27;4.30;94.20
17092;DHT22;8661;45.700;4.880;2023-04-05T02:16:54;4.30;94.10
17092;DHT22;8661;45.700;4.880;2023-04-05T02:19:23;4.30;94.20
17092;DHT22;8661;45.700;4.880;2023-04-05T02:21:50;4.20;94.10
17092;DHT22;8661;45.700;4.880;2023-04-05T02:24:18;4.20;94.20
17092;DHT22;8661;45.700;4.880;2023-04-05T02:26:46;4.20;94.30
17092;DHT22;8661;45.700;4.880;2023-04-05T02:29:13;4.10;94.50
17092;DHT22;8661;45.700;4.880;2023-04-05T02:31:40;4.10;94.50
17092;DHT22;8661;45.700;4.880;2023-04-05T02:34:07;4.10;94.60
17092;DHT22;8661;45.700;4.880;2023-04-05T02:36:37;4.00;94.70
17092;DHT22;8661;45.700;4.880;2023-04-05T02:39:06;4.00;94.70
17092;DHT22;8661;45.700;4.880;2023-04-05T02:41:33;3.90;94.70
17092;DHT22;8661;45.700;4.880;2023-04-05T02:44:01;4.00;94.80
17092;DHT22;8661;45.700;4.880;2023-04-05T02:46:28;3.90;94.90
17092;DHT22;8661;45.700;4.880;2023-04-05T02:48:55;3.90;95.10
17092;DHT22;8661;45.700;4.880;2023-04-05T02:51:22;3.90;95.10
17092;DHT22;8661;45.700;4.880;2023-04-05T02:53:51;3.80;95.10
17092;DHT22;8661;45.700;4.880;2023-04-05T02:56:18;3.90;95.10
17092;DHT22;8661;45.700;4.880;2023-04-05T02:58:46;3.80;95.20
17092;DHT22;8661;45.700;4.880;2023-04-05T03:01:13;3.80;95.20
17092;DHT22;8661;45.700;4.880;2023-04-05T03:03:42;3.90;95.10
17092;DHT22;8661;45.700;4.880;2023-04-05T03:06:09;3.90;94.90
17092;DHT22;8661;45.700;4.880;2023-04-05T03:08:37;3.90;94.80
17092;DHT22;8661;45.700;4.880;2023-04-05T03:11:10;4.00;94.90
17092;DHT22;8661;45.700;4.880;2023-04-05T03:13:37;4.00;94.60
17092;DHT22;8661;45.700;4.880;2023-04-05T03:16:05;4.00;94.70
17092;DHT22;8661;45.700;4.880;2023-04-05T03:18:32;3.90;94.70
17092;DHT22;8661;45.700;4.880;2023-04-05T03:20:59;4.00;94.70
17092;DHT22;8661;45.700;4.880;2023-04-05T03:23:27;4.00;94.60
17092;DHT22;8661;45.700;4.880;2023-04-05T03:25:57;4.00;94.60
17092;DHT22;8661;45.700;4.880;2023-04-05T03:28:25;4.00;94.60
17092;DHT22;8661;45.700;4.880;2023-04-05T03:30:52;4.00;94.40
17092;DHT22;8661;45.700;4.880;2023-04-05T03:33:20;4.00;94.50
17092;DHT22;8661;45.700;4.880;2023-04-05T03:35:47;3.90;94.60
17092;DHT22;8661;45.700;4.880;2023-04-05T03:38:14;4.00;94.80
17092;DHT22;8661;45.700;4.880;2023-04-05T03:40:41;3.90;94.80
17092;DHT22;8661;45.700;4.880;2023-04-05T03:43:08;3.90;94.80
17092;DHT22;8661;45.700;4.880;2023-04-05T03:45:37;3.80;94.80
17092;DHT22;8661;45.700;4.880;2023-04-05T03:48:04;3.80;94.80
17092;DHT22;8661;45.700;4.880;2023-04-05T03:50:31;3.80;95.00
17092;DHT22;8661;45.700;4.880;2023-04-05T03:52:58;3.70;95.10
17092;DHT22;8661;45.700;4.880;2023-04-05T03:55:26;3.70;95.10
17092;DHT22;8661;45.700;4.880;2023-04-05T03:57:53;3.60;95.20
17092;DHT22;8661;45.700;4.880;2023-04-05T04:00:20;3.60;95.40
17092;DHT22;8661;45.700;4.880;2023-04-05T04:02:50;3.60;95.60
17092;DHT22;8661;45.700;4.880;2023-04-05T04:05:18;3.50;95.80
17092;DHT22;8661;45.700;4.880;2023-04-05T04:07:45;3.50;95.80
17092;DHT22;8661;45.700;4.880;2023-04-05T04:10:15;3.60;95.80
17092;DHT22;8661;45.700;4.880;2023-04-05T04:12:43;3.50;95.80
17092;DHT22;8661;45.700;4.880;2023-04-05T04:15:10;3.50;95.80
17092;DHT22;8661;45.700;4.880;2023-04-05T04:17:37;3.60;95.70
17092;DHT22;8661;45.700;4.880;2023-04-05T04:20:08;3.70;95.50
17092;DHT22;8661;45.700;4.880;2023-04-05T04:22:36;3.70;95.50
17092;DHT22;8661;45.700;4.880;2023-04-05T04:25:05;3.70;95.50
17092;DHT22;8661;45.700;4.880;2023-04-05T04:27:35;3.70;95.40
17092;DHT22;8661;45.700;4.880;2023-04-05T04:30:06;3.70;95.30
17092;DHT22;8661;45.700;4.880;2023-04-05T04:32:35;3.70;95.40
17092;DHT22;8661;45.700;4.880;2023-04-05T04:35:22;3.70;95.40
17092;DHT22;8661;45.700;4.880;2023-04-05T04:37:54;3.80;95.40
17092;DHT22;8661;45.700;4.880;2023-04-05T04:40:23;3.80;95.30
17092;DHT22;8661;45.700;4.880;2023-04-05T04:42:51;3.80;95.20
17092;DHT22;8661;45.700;4.880;2023-04-05T04:45:19;3.80;95.20
17092;DHT22;8661;45.700;4.880;2023-04-05T04:47:47;4.00;95.30
17092;DHT22;8661;45.700;4.880;2023-04-05T04:50:18;3.90;95.30
17092;DHT22;8661;45.700;4.880;2023-04-05T04:52:47;3.90;95.60
17092;DHT22;8661;45.700;4.880;2023-04-05T04:55:14;3.90;95.10
17092;DHT22;8661;45.700;4.880;2023-04-05T04:57:41;3.90;95.00
17092;DHT22;8661;45.700;4.880;2023-04-05T05:00:09;3.90;94.90
17092;DHT22;8661;45.700;4.880;2023-04-05T05:02:43;3.90;95.00
17092;DHT22;8661;45.700;4.880;2023-04-05T05:05:12;3.90;95.30
17092;DHT22;8661;45.700;4.880;2023-04-05T05:07:40;3.90;95.00
17092;DHT22;8661;45.700;4.880;2023-04-05T05:10:10;3.80;95.10
17092;DHT22;8661;45.700;4.880;2023-04-05T05:12:39;3.70;95.20
17092;DHT22;8661;45.700;4.880;2023-04-05T05:15:07;3.80;95.20
17092;DHT22;8661;45.700;4.880;2023-04-05T05:17:34;3.70;95.20
17092;DHT22;8661;45.700;4.880;2023-04-05T05:20:02;3.80;95.40
17092;DHT22;8661;45.700;4.880;2023-04-05T05:22:37;3.70;95.40
17092;DHT22;8661;45.700;4.880;2023-04-05T05:25:12;3.70;95.40
17092;DHT22;8661;45.700;4.880;2023-04-05T05:27:39;3.70;95.50
17092;DHT22;8661;45.700;4.880;2023-04-05T05:30:07;3.70;95.40
17092;DHT22;8661;45.700;4.880;2023-04-05T05:32:34;3.80;96.20
17092;DHT22;8661;45.700;4.880;2023-04-05T05:35:01;3.80;95.60
17092;DHT22;8661;45.700;4.880;2023-04-05T05:37:29;3.80;95.60
17092;DHT22;8661;45.700;4.880;2023-04-05T05:39:56;3.80;95.60
17092;DHT22;8661;45.700;4.880;2023-04-05T05:42:25;3.80;95.70
17092;DHT22;8661;45.700;4.880;2023-04-05T05:44:52;4.00;95.90
17092;DHT22;8661;45.700;4.880;2023-04-05T05:47:19;4.30;95.60
17092;DHT22;8661;45.700;4.880;2023-04-05T05:49:46;4.90;94.70
17092;DHT22;8661;45.700;4.880;2023-04-05T05:52:14;5.80;93.60
17092;DHT22;8661;45.700;4.880;2023-04-05T05:54:41;6.50;92.20
17092;DHT22;8661;45.700;4.880;2023-04-05T05:57:08;7.00;91.20
17092;DHT22;8661;45.700;4.880;2023-04-05T05:59:36;7.70;90.40
17092;DHT22;8661;45.700;4.880;2023-04-05T06:02:03;8.60;87.70
17092;DHT22;8661;45.700;4.880;2023-04-05T06:04:30;9.50;85.00
17092;DHT22;8661;45.700;4.880;2023-04-05T06:06:58;10.20;83.20
17092;DHT22;8661;45.700;4.880;2023-04-05T06:09:26;10.60;80.70
17092;DHT22;8661;45.700;4.880;2023-04-05T06:11:53;10.90;79.90
17092;DHT22;8661;45.700;4.880;2023-04-05T06:14:20;11.00;78.70
17092;DHT22;8661;45.700;4.880;2023-04-05T06:16:49;11.20;78.80
17092;DHT22;8661;45.700;4.880;2023-04-05T06:19:16;11.70;77.90
17092;DHT22;8661;45.700;4.880;2023-04-05T06:21:43;11.60;77.50
17092;DHT22;8661;45.700;4.880;2023-04-05T06:24:10;11.70;77.40
17092;DHT22;8661;45.700;4.880;2023-04-05T06:26:36;12.00;76.70
17092;DHT22;8661;45.700;4.880;2023-04-05T06:29:03;12.10;76.30
17092;DHT22;8661;45.700;4.880;2023-04-05T06:31:33;12.10;76.40
17092;DHT22;8661;45.700;4.880;2023-04-05T06:34:02;12.20;75.60
17092;DHT22;8661;45.700;4.880;2023-04-05T06:36:29;12.50;75.00
17092;DHT22;8661;45.700;4.880;2023-04-05T06:38:58;13.10;75.00
17092;DHT22;8661;45.700;4.880;2023-04-05T06:41:25;13.50;73.20
17092;DHT22;8661;45.700;4.880;2023-04-05T06:43:53;13.50;72.00
17092;DHT22;8661;45.700;4.880;2023-04-05T06:46:23;13.40;72.30
17092;DHT22;8661;45.700;4.880;2023-04-05T06:48:53;13.70;72.20
17092;DHT22;8661;45.700;4.880;2023-04-05T06:51:22;13.90;71.50
17092;DHT22;8661;45.700;4.880;2023-04-05T06:53:52;14.40;70.00
17092;DHT22;8661;45.700;4.880;2023-04-05T06:56:21;14.70;69.30
17092;DHT22;8661;45.700;4.880;2023-04-05T06:58:48;14.80;68.10
17092;DHT22;8661;45.700;4.880;2023-04-05T07:01:16;15.50;67.60
17092;DHT22;8661;45.700;4.880;2023-04-05T07:03:43;15.80;65.90
17092;DHT22;8661;45.700;4.880;2023-04-05T07:06:10;15.80;66.00
17092;DHT22;8661;45.700;4.880;2023-04-05T07:08:38;16.20;65.30
17092;DHT22;8661;45.700;4.880;2023-04-05T07:11:06;16.20;64.30
17092;DHT22;8661;45.700;4.880;2023-04-05T07:13:35;16.20;64.60
17092;DHT22;8661;45.700;4.880;2023-04-05T07:16:02;16.30;64.50
17092;DHT22;8661;45.700;4.880;2023-04-05T07:18:29;16.60;64.10
17092;DHT22;8661;45.700;4.880;2023-04-05T07:20:59;16.90;62.50
17092;DHT22;8661;45.700;4.880;2023-04-05T07:23:26;16.90;61.90
17092;DHT22;8661;45.700;4.880;2023-04-05T07:25:59;17.30;61.80
17092;DHT22;8661;45.700;4.880;2023-04-05T07:28:29;17.40;60.40
17092;DHT22;8661;45.700;4.880;2023-04-05T07:30:56;17.40;61.20
17092;DHT22;8661;45.700;4.880;2023-04-05T07:33:23;17.70;60.50
17092;DHT22;8661;45.700;4.880;2023-04-05T07:35:51;18.10;59.70
17092;DHT22;8661;45.700;4.880;2023-04-05T07:38:19;18.40;59.80
17092;DHT22;8661;45.700;4.880;2023-04-05T07:40:47;17.90;60.30
17092;DHT22;8661;45.700;4.880;2023-04-05T07:43:15;17.30;60.90
17092;DHT22;8661;45.700;4.880;2023-04-05T07:45:42;17.50;61.00
17092;DHT22;8661;45.700;4.880;2023-04-05T07:48:10;17.90;60.40
17092;DHT22;8661;45.700;4.880;2023-04-05T07:50:37;18.20;60.00
17092;DHT22;8661;45.700;4.880;2023-04-05T07:53:06;18.60;59.10
17092;DHT22;8661;45.700;4.880;2023-04-05T07:55:36;18.80;58.70
17092;DHT22;8661;45.700;4.880;2023-04-05T07:58:03;18.70;59.00
17092;DHT22;8661;45.700;4.880;2023-04-05T08:00:31;19.00;58.10
17092;DHT22;8661;45.700;4.880;2023-04-05T08:02:58;19.10;57.50
17092;DHT22;8661;45.700;4.880;2023-04-05T08:05:27;19.10;57.60
17092;DHT22;8661;45.700;4.880;2023-04-05T08:07:54;19.00;57.40
17092;DHT22;8661;45.700;4.880;2023-04-05T08:10:22;19.20;57.80
17092;DHT22;8661;45.700;4.880;2023-04-05T08:12:49;19.40;57.60
17092;DHT22;8661;45.700;4.880;2023-04-05T08:15:16;19.50;56.40
17092;DHT22;8661;45.700;4.880;2023-04-05T08:17:44;19.40;56.80
17092;DHT22;8661;45.700;4.880;2023-04-05T08:20:12;19.80;56.20
17092;DHT22;8661;45.700;4.880;2023-04-05T08:22:38;19.60;56.30
17092;DHT22;8661;45.700;4.880;2023-04-05T08:25:07;19.60;56.20
17092;DHT22;8661;45.700;4.880;2023-04-05T08:27:34;19.90;55.70
17092;DHT22;8661;45.700;4.880;2023-04-05T08:30:01;20.10;55.50
17092;DHT22;8661;45.700;4.880;2023-04-05T08:32:28;20.30;56.00
17092;DHT22;8661;45.700;4.880;2023-04-05T08:34:57;20.00;55.40
17092;DHT22;8661;45.700;4.880;2023-04-05T08:37:24;20.30;55.60
17092;DHT22;8661;45.700;4.880;2023-04-05T08:39:52;20.80;55.00
17092;DHT22;8661;45.700;4.880;2023-04-05T08:42:25;21.10;54.20
17092;DHT22;8661;45.700;4.880;2023-04-05T08:44:56;21.40;54.80
17092;DHT22;8661;45.700;4.880;2023-04-05T08:47:26;21.80;54.50
17092;DHT22;8661;45.700;4.880;2023-04-05T08:49:53;22.10;53.60
17092;DHT22;8661;45.700;4.880;2023-04-05T08:52:24;22.10;53.20
17092;DHT22;8661;45.700;4.880;2023-04-05T08:54:52;21.90;53.10
17092;DHT22;8661;45.700;4.880;2023-04-05T08:57:22;21.30;54.10
17092;DHT22;8661;45.700;4.880;2023-04-05T08:59:52;21.30;53.70
17092;DHT22;8661;45.700;4.880;2023-04-05T09:02:22;21.90;53.50
17092;DHT22;8661;45.700;4.880;2023-04-05T09:04:50;22.30;52.90
17092;DHT22;8661;45.700;4.880;2023-04-05T09:07:19;22.20;52.60
17092;DHT22;8661;45.700;4.880;2023-04-05T09:09:51;22.00;53.40
17092;DHT22;8661;45.700;4.880;2023-04-05T09:12:19;22.10;52.90
17092;DHT22;8661;45.700;4.880;2023-04-05T09:14:48;22.60;52.30
17092;DHT22;8661;45.700;4.880;2023-04-05T09:17:16;22.80;52.30
17092;DHT22;8661;45.700;4.880;2023-04-05T09:19:44;23.00;51.90
17092;DHT22;8661;45.700;4.880;2023-04-05T09:22:11;23.30;51.40
17092;DHT22;8661;45.700;4.880;2023-04-05T09:24:40;22.90;52.10
17092;DHT22;8661;45.700;4.880;2023-04-05T09:27:10;23.10;52.50
17092;DHT22;8661;45.700;4.880;2023-04-05T09:29:38;23.20;52.20
17092;DHT22;8661;45.700;4.880;2023-04-05T09:32:06;23.30;51.80
17092;DHT22;8661;45.700;4.880;2023-04-05T09:34:34;23.60;51.30
17092;DHT22;8661;45.700;4.880;2023-04-05T09:37:10;23.50;51.10
17092;DHT22;8661;45.700;4.880;2023-04-05T09:39:37;24.10;50.90
17092;DHT22;8661;45.700;4.880;2023-04-05T09:42:06;24.40;49.90
17092;DHT22;8661;45.700;4.880;2023-04-05T09:44:54;24.70;49.60
17092;DHT22;8661;45.700;4.880;2023-04-05T09:47:23;24.10;48.70
17092;DHT22;8661;45.700;4.880;2023-04-05T09:49:52;23.70;50.20
17092;DHT22;8661;45.700;4.880;2023-04-05T09:52:20;24.00;50.00
17092;DHT22;8661;45.700;4.880;2023-04-05T09:54:47;24.30;49.80
17092;DHT22;8661;45.700;4.880;2023-04-05T09:57:17;24.60;49.50
17092;DHT22;8661;45.700;4.880;2023-04-05T09:59:45;24.20;49.20
17092;DHT22;8661;45.700;4.880;2023-04-05T10:02:14;24.00;49.70
17092;DHT22;8661;45.700;4.880;2023-04-05T10:04:42;23.60;50.90
17092;DHT22;8661;45.700;4.880;2023-04-05T10:07:10;24.10;49.40
17092;DHT22;8661;45.700;4.880;2023-04-05T10:09:38;23.90;49.80
17092;DHT22;8661;45.700;4.880;2023-04-05T10:12:06;23.80;49.60
17092;DHT22;8661;45.700;4.880;2023-04-05T10:14:34;24.00;49.30
17092;DHT22;8661;45.700;4.880;2023-04-05T10:17:07;24.30;49.60
17092;DHT22;8661;45.700;4.880;2023-04-05T10:19:59;24.70;49.10
17092;DHT22;8661;45.700;4.880;2023-04-05T10:22:40;25.00;46.80
17092;DHT22;8661;45.700;4.880;2023-04-05T10:25:14;24.70;47.70
17092;DHT22;8661;45.700;4.880;2023-04-05T10:27:52;24.70;49.20
17092;DHT22;8661;45.700;4.880;2023-04-05T10:30:23;25.30;48.30
17092;DHT22;8661;45.700;4.880;2023-04-05T10:33:01;24.90;48.30
17092;DHT22;8661;45.700;4.880;2023-04-05T10:35:43;24.90;47.60
17092;DHT22;8661;45.700;4.880;2023-04-05T10:38:16;24.00;49.10
17092;DHT22;8661;45.700;4.880;2023-04-05T10:40:46;24.20;49.40
17092;DHT22;8661;45.700;4.880;2023-04-05T10:43:15;24.90;48.20
17092;DHT22;8661;45.700;4.880;2023-04-05T10:45:43;24.90;48.70
17092;DHT22;8661;45.700;4.880;2023-04-05T10:48:17;25.30;48.70
17092;DHT22;8661;45.700;4.880;2023-04-05T10:50:48;24.60;48.70
17092;DHT22;8661;45.700;4.880;2023-04-05T10:53:16;24.60;48.70
17092;DHT22;8661;45.700;4.880;2023-04-05T10:55:45;25.10;48.00
17092;DHT22;8661;45.700;4.880;2023-04-05T10:58:12;24.80;46.60
17092;DHT22;8661;45.700;4.880;2023-04-05T11:00:41;24.50;47.50
17092;DHT22;8661;45.700;4.880;2023-04-05T11:03:08;24.70;47.60
17092;DHT22;8661;45.700;4.880;2023-04-05T11:05:36;25.00;47.20
17092;DHT22;8661;45.700;4.880;2023-04-05T11:08:06;25.30;46.70
17092;DHT22;8661;45.700;4.880;2023-04-05T11:10:36;25.30;46.10
17092;DHT22;8661;45.700;4.880;2023-04-05T11:13:09;25.50;45.30
17092;DHT22;8661;45.700;4.880;2023-04-05T11:15:39;25.50;46.20
17092;DHT22;8661;45.700;4.880;2023-04-05T11:18:10;25.80;46.00
17092;DHT22;8661;45.700;4.880;2023-04-05T11:20:42;25.90;45.70
17092;DHT22;8661;45.700;4.880;2023-04-05T11:23:11;25.70;45.40
17092;DHT22;8661;45.700;4.880;2023-04-05T11:25:39;25.60;45.40
17092;DHT22;8661;45.700;4.880;2023-04-05T11:28:06;25.30;46.20
17092;DHT22;8661;45.700;4.880;2023-04-05T11:30:47;25.30;46.60
17092;DHT22;8661;45.700;4.880;2023-04-05T11:33:38;25.30;46.20
17092;DHT22;8661;45.700;4.880;2023-04-05T11:36:05;25.20;45.50
17092;DHT22;8661;45.700;4.880;2023-04-05T11:38:34;24.70;47.00
17092;DHT22;8661;45.700;4.880;2023-04-05T11:41:05;24.90;47.10
17092;DHT22;8661;45.700;4.880;2023-04-05T11:43:33;25.10;46.50
17092;DHT22;8661;45.700;4.880;2023-04-05T11:46:01;24.80;46.30
17092;DHT22;8661;45.700;4.880;2023-04-05T11:48:29;24.40;46.10
17092;DHT22;8661;45.700;4.880;2023-04-05T11:50:56;24.40;46.30
17092;DHT22;8661;45.700;4.880;2023-04-05T11:53:23;24.50;46.90
17092;DHT22;8661;45.700;4.880;2023-04-05T11:55:52;24.80;46.30
17092;DHT22;8661;45.700;4.880;2023-04-05T11:58:21;25.20;46.90
17092;DHT22;8661;45.700;4.880;2023-04-05T12:00:57;24.90;47.30
17092;DHT22;8661;45.700;4.880;2023-04-05T12:03:25;25.10;46.20
17092;DHT22;8661;45.700;4.880;2023-04-05T12:05:54;25.00;45.70
17092;DHT22;8661;45.700;4.880;2023-04-05T12:08:22;24.40;46.90
17092;DHT22;8661;45.700;4.880;2023-04-05T12:10:57;24.60;47.30
17092;DHT22;8661;45.700;4.880;2023-04-05T12:13:26;24.90;46.30
17092;DHT22;8661;45.700;4.880;2023-04-05T12:15:57;25.20;46.40
17092;DHT22;8661;45.700;4.880;2023-04-05T12:18:25;25.00;46.20
17092;DHT22;8661;45.700;4.880;2023-04-05T12:20:52;25.10;46.00
17092;DHT22;8661;45.700;4.880;2023-04-05T12:23:20;25.00;46.90
17092;DHT22;8661;45.700;4.880;2023-04-05T12:25:48;24.80;46.10
17092;DHT22;8661;45.700;4.880;2023-04-05T12:28:17;24.90;46.20
17092;DHT22;8661;45.700;4.880;2023-04-05T12:30:48;24.70;45.90
17092;DHT22;8661;45.700;4.880;2023-04-05T12:33:15;24.50;46.70
17092;DHT22;8661;45.700;4.880;2023-04-05T12:35:51;24.80;47.00
17092;DHT22;8661;45.700;4.880;2023-04-05T12:38:18;24.80;46.40
17092;DHT22;8661;45.700;4.880;2023-04-05T12:40:47;24.60;46.50
17092;DHT22;8661;45.700;4.880;2023-04-05T12:43:14;24.80;47.00
17092;DHT22;8661;45.700;4.880;2023-04-05T12:45:46;24.10;47.70
17092;DHT22;8661;45.700;4.880;2023-04-05T12:48:20;24.20;48.00
17092;DHT22;8661;45.700;4.880;2023-04-05T12:50:51;24.60;47.40
17092;DHT22;8661;45.700;4.880;2023-04-05T12:53:20;24.80;47.40
17092;DHT22;8661;45.700;4.880;2023-04-05T12:55:50;24.70;47.40
17092;DHT22;8661;45.700;4.880;2023-04-05T12:58:18;24.60;47.40
17092;DHT22;8661;45.700;4.880;2023-04-05T13:00:46;24.90;47.20
17092;DHT22;8661;45.700;4.880;2023-04-05T13:03:18;24.80;46.50
17092;DHT22;8661;45.700;4.880;2023-04-05T13:05:45;24.10;47.50
17092;DHT22;8661;45.700;4.880;2023-04-05T13:08:14;24.20;47.70
17092;DHT22;8661;45.700;4.880;2023-04-05T13:10:43;24.10;47.30
17092;DHT22;8661;45.700;4.880;2023-04-05T13:13:10;24.10;47.40
17092;DHT22;8661;45.700;4.880;2023-04-05T13:15:38;24.30;46.70
17092;DHT22;8661;45.700;4.880;2023-04-05T13:18:06;24.50;47.10
17092;DHT22;8661;45.700;4.880;2023-04-05T13:20:34;24.50;46.70
17092;DHT22;8661;45.700;4.880;2023-04-05T13:23:01;24.30;45.70
17092;DHT22;8661;45.700;4.880;2023-04-05T13:25:28;24.10;46.20
17092;DHT22;8661;45.700;4.880;2023-04-05T13:27:55;23.70;46.50
17092;DHT22;8661;45.700;4.880;2023-04-05T13:30:22;23.60;46.70
17092;DHT22;8661;45.700;4.880;2023-04-05T13:32:49;23.90;46.50
17092;DHT22;8661;45.700;4.880;2023-04-05T13:35:21;23.60;46.80
17092;DHT22;8661;45.700;4.880;2023-04-05T13:37:47;23.20;48.30
17092;DHT22;8661;45.700;4.880;2023-04-05T13:40:15;23.00;48.50
17092;DHT22;8661;45.700;4.880;2023-04-05T13:42:42;23.30;47.80
17092;DHT22;8661;45.700;4.880;2023-04-05T13:45:09;23.10;47.20
17092;DHT22;8661;45.700;4.880;2023-04-05T13:47:36;23.20;47.70
17092;DHT22;8661;45.700;4.880;2023-04-05T13:50:04;23.60;46.90
17092;DHT22;8661;45.700;4.880;2023-04-05T13:52:33;23.90;46.80
17092;DHT22;8661;45.700;4.880;2023-04-05T13:55:00;23.60;46.90
17092;DHT22;8661;45.700;4.880;2023-04-05T13:57:27;23.60;46.60
17092;DHT22;8661;45.700;4.880;2023-04-05T13:59:53;23.60;47.10
17092;DHT22;8661;45.700;4.880;2023-04-05T14:02:20;23.20;46.90
17092;DHT22;8661;45.700;4.880;2023-04-05T14:04:50;22.80;47.10
17092;DHT22;8661;45.700;4.880;2023-04-05T14:07:17;22.40;47.60
17092;DHT22;8661;45.700;4.880;2023-04-05T14:09:45;22.80;47.80
17092;DHT22;8661;45.700;4.880;2023-04-05T14:12:13;22.90;47.40
17092;DHT22;8661;45.700;4.880;2023-04-05T14:14:39;23.00;46.90
17092;DHT22;8661;45.700;4.880;2023-04-05T14:17:06;22.90;47.20
17092;DHT22;8661;45.700;4.880;2023-04-05T14:19:33;22.40;48.20
17092;DHT22;8661;45.700;4.880;2023-04-05T14:22:00;22.40;47.90
17092;DHT22;8661;45.700;4.880;2023-04-05T14:24:27;22.30;47.90
17092;DHT22;8661;45.700;4.880;2023-04-05T14:26:55;22.10;47.50
17092;DHT22;8661;45.700;4.880;2023-04-05T14:29:22;22.10;47.90
17092;DHT22;8661;45.700;4.880;2023-04-05T14:31:53;22.00;48.30
17092;DHT22;8661;45.700;4.880;2023-04-05T14:34:21;22.10;48.50
17092;DHT22;8661;45.700;4.880;2023-04-05T14:36:47;22.00;48.50
17092;DHT22;8661;45.700;4.880;2023-04-05T14:39:17;22.10;48.40
17092;DHT22;8661;45.700;4.880;2023-04-05T14:41:43;22.20;48.90
17092;DHT22;8661;45.700;4.880;2023-04-05T14:44:16;22.20;48.60
17092;DHT22;8661;45.700;4.880;2023-04-05T14:46:42;22.30;49.00
17092;DHT22;8661;45.700;4.880;2023-04-05T14:49:09;22.20;49.40
17092;DHT22;8661;45.700;4.880;2023-04-05T14:51:36;22.00;49.30
17092;DHT22;8661;45.700;4.880;2023-04-05T14:54:05;21.70;48.90
17092;DHT22;8661;45.700;4.880;2023-04-05T14:56:32;21.90;48.90
17092;DHT22;8661;45.700;4.880;2023-04-05T14:58:59;21.90;48.60
17092;DHT22;8661;45.700;4.880;2023-04-05T15:01:28;21.90;48.50
17092;DHT22;8661;45.700;4.880;2023-04-05T15:03:56;22.20;48.60
17092;DHT22;8661;45.700;4.880;2023-04-05T15:06:23;22.80;48.50
17092;DHT22;8661;45.700;4.880;2023-04-05T15:08:50;23.10;47.70
17092;DHT22;8661;45.700;4.880;2023-04-05T15:11:17;23.60;46.90
17092;DHT22;8661;45.700;4.880;2023-04-05T15:13:44;24.00;46.60
17092;DHT22;8661;45.700;4.880;2023-04-05T15:16:14;24.30;46.40
17092;DHT22;8661;45.700;4.880;2023-04-05T15:18:42;24.70;46.20
17092;DHT22;8661;45.700;4.880;2023-04-05T15:21:12;23.90;46.00
17092;DHT22;8661;45.700;4.880;2023-04-05T15:23:39;22.50;48.10
17092;DHT22;8661;45.700;4.880;2023-04-05T15:26:06;21.60;49.00
17092;DHT22;8661;45.700;4.880;2023-04-05T15:28:33;21.10;49.90
17092;DHT22;8661;45.700;4.880;2023-04-05T15:31:00;20.60;50.50
17092;DHT22;8661;45.700;4.880;2023-04-05T15:33:27;20.20;50.30
17092;DHT22;8661;45.700;4.880;2023-04-05T15:35:55;20.10;51.10
17092;DHT22;8661;45.700;4.880;2023-04-05T15:38:22;19.70;51.50
17092;DHT22;8661;45.700;4.880;2023-04-05T15:44:07;19.10;51.70
17092;DHT22;8661;45.700;4.880;2023-04-05T15:46:34;18.90;52.30
17092;DHT22;8661;45.700;4.880;2023-04-05T15:49:01;18.60;52.20
17092;DHT22;8661;45.700;4.880;2023-04-05T15:51:30;18.40;53.40
17092;DHT22;8661;45.700;4.880;2023-04-05T15:53:57;18.00;52.90
17092;DHT22;8661;45.700;4.880;2023-04-05T15:56:24;17.90;53.70
17092;DHT22;8661;45.700;4.880;2023-04-05T15:58:51;17.70;54.30
17092;DHT22;8661;45.700;4.880;2023-04-05T16:01:18;17.40;54.30
17092;DHT22;8661;45.700;4.880;2023-04-05T16:03:44;17.30;54.50
17092;DHT22;8661;45.700;4.880;2023-04-05T16:06:11;17.20;54.60